PWSweather.com
Personal Weather Stations
Station Observations

SaroSE

Lat: 57.5222, Lon: 11.947

Elevation: 35

Station Type: Davis VP2

http://www.lokaltvader.se/

Latest ConditionsUpdated 2:45:00 PM GMT+01:01 Thursday, Nov 14, 2019
Currently Today's Max Today's Min Today's Average
Temperature 45.1°F7.3°C 45.1°F7.3°C 38.0°F3.3°C 40.0°F4.4°C
Dew Point 44.3°F6.8°C 44.3°F6.8°C 36.6°F2.6°C 38.7°F3.7°C
Winds 8.1 mph SE13.0 kmh SE 15.0 mph -24.1 kmh - - 9.2 mph 14.8 kmh
Wind Gusts 9.2 mph14.8 kmh 18.4 mph29.6 kmh - -
Humidity 97% 97% 94% 95%
Pressure 29.79 in1008.8 mb 29.79 in1008.8 mb 29.54 in1000.3 mb -
Precipitation - 0.31 in7.9 mm - -
Hour Temp Dew Point Humidity Winds Wind Gusts Pressure Precip Precip Rate Daily Precip Total
02:45 PM 45.1°F7.3°C 44.3°F6.8°C 97% 8.1 mph SE13.0 kmh SE 9.2 mph14.8 kmh 29.79 in1008.8 mb - 0.01 in0.3 mm 0.31 in7.9 mm
02:30 PM 44.8°F7.1°C 43.7°F6.5°C 96% 5.8 mph SE9.3 kmh SE 9.2 mph14.8 kmh 29.78 in1008.5 mb - 0.00 in0.0 mm 0.30 in7.6 mm
02:15 PM 44.6°F7.0°C 43.8°F6.6°C 97% 8.1 mph SE13.0 kmh SE 9.2 mph14.8 kmh 29.77 in1008.1 mb - 0.00 in0.0 mm 0.30 in7.6 mm
02:00 PM 44.4°F6.9°C 43.6°F6.4°C 97% 5.8 mph SE9.3 kmh SE 6.9 mph11.1 kmh 29.78 in1008.5 mb - 0.00 in0.0 mm 0.30 in7.6 mm
01:45 PM 44.4°F6.9°C 43.6°F6.4°C 97% 5.8 mph SE9.3 kmh SE 10.4 mph16.7 kmh 29.77 in1008.1 mb - 0.00 in0.0 mm 0.30 in7.6 mm
01:30 PM 43.9°F6.6°C 43.1°F6.2°C 97% 6.9 mph SE11.1 kmh SE 8.1 mph13.0 kmh 29.76 in1007.8 mb - 0.00 in0.0 mm 0.30 in7.6 mm
01:15 PM 43.4°F6.3°C 42.3°F5.7°C 96% 6.9 mph SE11.1 kmh SE 6.9 mph11.1 kmh 29.76 in1007.8 mb - 0.00 in0.0 mm 0.30 in7.6 mm
01:00 PM 43.4°F6.3°C 42.6°F5.9°C 97% 6.9 mph SE11.1 kmh SE 9.2 mph14.8 kmh 29.75 in1007.5 mb - 0.00 in0.0 mm 0.30 in7.6 mm
12:45 PM 42.8°F6.0°C 41.7°F5.4°C 96% 4.6 mph E7.4 kmh E 9.2 mph14.8 kmh 29.75 in1007.5 mb - 0.00 in0.0 mm 0.30 in7.6 mm
12:30 PM 42.4°F5.8°C 41.3°F5.2°C 96% 4.6 mph ESE7.4 kmh ESE 11.5 mph18.5 kmh 29.74 in1007.1 mb - 0.04 in1.0 mm 0.30 in7.6 mm
12:15 PM 42.4°F5.8°C 41.6°F5.3°C 97% 8.1 mph ESE13.0 kmh ESE 10.4 mph16.7 kmh 29.74 in1007.1 mb - 0.09 in2.3 mm 0.30 in7.6 mm
12:00 PM 41.9°F5.5°C 40.8°F4.9°C 96% 2.3 mph E3.7 kmh E 8.1 mph13.0 kmh 29.74 in1007.1 mb - 0.11 in2.8 mm 0.30 in7.6 mm
11:45 AM 41.6°F5.3°C 40.5°F4.7°C 96% 1.2 mph E1.9 kmh E 3.5 mph5.6 kmh 29.73 in1006.8 mb - 0.14 in3.6 mm 0.30 in7.6 mm
11:30 AM 41.2°F5.1°C 40.1°F4.5°C 96% 4.6 mph E7.4 kmh E 8.1 mph13.0 kmh 29.73 in1006.8 mb - 0.13 in3.3 mm 0.27 in6.9 mm
11:15 AM 41.4°F5.2°C 40.3°F4.6°C 96% 2.3 mph ESE3.7 kmh ESE 6.9 mph11.1 kmh 29.72 in1006.4 mb - 0.08 in2.0 mm 0.21 in5.3 mm
11:00 AM 41.0°F5.0°C 39.9°F4.4°C 96% 5.8 mph SE9.3 kmh SE 8.1 mph13.0 kmh 29.71 in1006.1 mb - 0.09 in2.3 mm 0.19 in4.8 mm
10:45 AM 40.5°F4.7°C 39.4°F4.1°C 96% 11.5 mph SE18.5 kmh SE 12.7 mph20.4 kmh 29.71 in1006.1 mb - 0.08 in2.0 mm 0.16 in4.1 mm
10:30 AM 40.2°F4.6°C 39.2°F4.0°C 96% 5.8 mph SE9.3 kmh SE 15.0 mph24.1 kmh 29.70 in1005.8 mb - 0.10 in2.5 mm 0.14 in3.6 mm
10:15 AM 40.0°F4.4°C 39.0°F3.9°C 96% 12.7 mph SE20.4 kmh SE 17.3 mph27.8 kmh 29.70 in1005.8 mb - 0.09 in2.3 mm 0.13 in3.3 mm
10:00 AM 40.0°F4.4°C 39.0°F3.9°C 96% 13.8 mph SE22.2 kmh SE 17.3 mph27.8 kmh 29.69 in1005.4 mb - 0.07 in1.8 mm 0.10 in2.5 mm
09:45 AM 39.8°F4.3°C 38.8°F3.8°C 96% 6.9 mph ESE11.1 kmh ESE 8.1 mph13.0 kmh 29.68 in1005.1 mb - 0.05 in1.3 mm 0.08 in2.0 mm
09:30 AM 39.8°F4.3°C 38.8°F3.8°C 96% 9.2 mph ESE14.8 kmh ESE 10.4 mph16.7 kmh 29.68 in1005.1 mb - 0.01 in0.3 mm 0.04 in1.0 mm
09:15 AM 39.4°F4.1°C 38.1°F3.4°C 95% 11.5 mph SE18.5 kmh SE 15.0 mph24.1 kmh 29.67 in1004.7 mb - 0.02 in0.5 mm 0.03 in0.8 mm
09:00 AM 39.2°F4.0°C 37.9°F3.3°C 95% 9.2 mph ESE14.8 kmh ESE 12.7 mph20.4 kmh 29.66 in1004.4 mb - 0.03 in0.8 mm 0.03 in0.8 mm
08:45 AM 39.0°F3.9°C 37.7°F3.2°C 95% 15.0 mph ESE24.1 kmh ESE 17.3 mph27.8 kmh 29.65 in1004.1 mb - 0.03 in0.8 mm 0.03 in0.8 mm
08:30 AM 39.0°F3.9°C 37.7°F3.2°C 95% 9.2 mph ESE14.8 kmh ESE 16.1 mph25.9 kmh 29.64 in1003.7 mb - 0.03 in0.8 mm 0.03 in0.8 mm
08:15 AM 39.1°F3.9°C 37.8°F3.2°C 95% 12.7 mph ESE20.4 kmh ESE 13.8 mph22.2 kmh 29.64 in1003.7 mb - 0.02 in0.5 mm 0.02 in0.5 mm
08:00 AM 38.8°F3.8°C 37.5°F3.1°C 95% 8.1 mph ESE13.0 kmh ESE 12.7 mph20.4 kmh 29.64 in1003.7 mb - 0.00 in0.0 mm 0.00 in0.0 mm
07:45 AM 38.8°F3.8°C 37.2°F2.9°C 94% 12.7 mph E20.4 kmh E 16.1 mph25.9 kmh 29.63 in1003.4 mb - 0.00 in0.0 mm 0.00 in0.0 mm
07:30 AM 38.7°F3.7°C 37.1°F2.8°C 94% 10.4 mph ESE16.7 kmh ESE 15.0 mph24.1 kmh 29.62 in1003.0 mb - 0.00 in0.0 mm 0.00 in0.0 mm
07:15 AM 38.7°F3.7°C 37.1°F2.8°C 94% 12.7 mph ESE20.4 kmh ESE 17.3 mph27.8 kmh 29.61 in1002.7 mb - 0.00 in0.0 mm 0.00 in0.0 mm
07:00 AM 38.7°F3.7°C 37.1°F2.8°C 94% 6.9 mph E11.1 kmh E 10.4 mph16.7 kmh 29.61 in1002.7 mb - 0.00 in0.0 mm 0.00 in0.0 mm
06:45 AM 38.7°F3.7°C 37.1°F2.8°C 94% 10.4 mph ESE16.7 kmh ESE 13.8 mph22.2 kmh 29.60 in1002.4 mb - 0.00 in0.0 mm 0.00 in0.0 mm
06:30 AM 38.7°F3.7°C 37.1°F2.8°C 94% 9.2 mph ESE14.8 kmh ESE 11.5 mph18.5 kmh 29.60 in1002.4 mb - 0.00 in0.0 mm 0.00 in0.0 mm
06:15 AM 38.7°F3.7°C 37.1°F2.8°C 94% 10.4 mph ESE16.7 kmh ESE 15.0 mph24.1 kmh 29.59 in1002.0 mb - 0.00 in0.0 mm 0.00 in0.0 mm
06:00 AM 38.7°F3.7°C 37.1°F2.8°C 94% 11.5 mph ESE18.5 kmh ESE 15.0 mph24.1 kmh 29.59 in1002.0 mb - 0.00 in0.0 mm 0.00 in0.0 mm
05:45 AM 38.7°F3.7°C 37.1°F2.8°C 94% 9.2 mph ESE14.8 kmh ESE 13.8 mph22.2 kmh 29.58 in1001.7 mb - 0.00 in0.0 mm 0.00 in0.0 mm
05:30 AM 38.7°F3.7°C 37.1°F2.8°C 94% 12.7 mph E20.4 kmh E 16.1 mph25.9 kmh 29.58 in1001.7 mb - 0.00 in0.0 mm 0.00 in0.0 mm
05:15 AM 38.7°F3.7°C 37.1°F2.8°C 94% 8.1 mph ESE13.0 kmh ESE 11.5 mph18.5 kmh 29.57 in1001.4 mb - 0.00 in0.0 mm 0.00 in0.0 mm
05:00 AM 38.6°F3.7°C 37.0°F2.8°C 94% 11.5 mph ESE18.5 kmh ESE 15.0 mph24.1 kmh 29.58 in1001.7 mb - 0.00 in0.0 mm 0.00 in0.0 mm
04:45 AM 38.7°F3.7°C 37.1°F2.8°C 94% 11.5 mph ESE18.5 kmh ESE 11.5 mph18.5 kmh 29.57 in1001.4 mb - 0.00 in0.0 mm 0.00 in0.0 mm
04:30 AM 38.7°F3.7°C 37.1°F2.8°C 94% 12.7 mph ESE20.4 kmh ESE 13.8 mph22.2 kmh 29.57 in1001.4 mb - 0.00 in0.0 mm 0.00 in0.0 mm
04:15 AM 38.7°F3.7°C 37.4°F3.0°C 95% 9.2 mph ESE14.8 kmh ESE 11.5 mph18.5 kmh 29.57 in1001.4 mb - 0.00 in0.0 mm 0.00 in0.0 mm
04:00 AM 38.6°F3.7°C 37.3°F2.9°C 95% 11.5 mph ESE18.5 kmh ESE 13.8 mph22.2 kmh 29.56 in1001.0 mb - 0.00 in0.0 mm 0.00 in0.0 mm
03:45 AM 38.5°F3.6°C 37.2°F2.9°C 95% 12.7 mph ESE20.4 kmh ESE 16.1 mph25.9 kmh 29.56 in1001.0 mb - 0.00 in0.0 mm 0.00 in0.0 mm
03:30 AM 38.3°F3.5°C 37.0°F2.8°C 95% 8.1 mph ESE13.0 kmh ESE 11.5 mph18.5 kmh 29.56 in1001.0 mb - 0.00 in0.0 mm 0.00 in0.0 mm
03:15 AM 38.2°F3.4°C 36.9°F2.7°C 95% 10.4 mph ESE16.7 kmh ESE 13.8 mph22.2 kmh 29.56 in1001.0 mb - 0.00 in0.0 mm 0.00 in0.0 mm
03:00 AM 38.0°F3.3°C 36.7°F2.6°C 95% 8.1 mph E13.0 kmh E 13.8 mph22.2 kmh 29.55 in1000.7 mb - 0.00 in0.0 mm 0.00 in0.0 mm
02:45 AM 38.2°F3.4°C 36.6°F2.6°C 94% 9.2 mph ESE14.8 kmh ESE 11.5 mph18.5 kmh 29.55 in1000.7 mb - 0.00 in0.0 mm 0.00 in0.0 mm
02:30 AM 38.3°F3.5°C 36.7°F2.6°C 94% 9.2 mph ESE14.8 kmh ESE 16.1 mph25.9 kmh 29.56 in1001.0 mb - 0.00 in0.0 mm 0.00 in0.0 mm
02:15 AM 38.3°F3.5°C 36.7°F2.6°C 94% 8.1 mph ESE13.0 kmh ESE 11.5 mph18.5 kmh 29.55 in1000.7 mb - 0.00 in0.0 mm 0.00 in0.0 mm
02:00 AM 38.6°F3.7°C 37.0°F2.8°C 94% 8.1 mph ESE13.0 kmh ESE 13.8 mph22.2 kmh 29.55 in1000.7 mb - 0.00 in0.0 mm 0.00 in0.0 mm
01:45 AM 38.8°F3.8°C 37.2°F2.9°C 94% 13.8 mph ESE22.2 kmh ESE 13.8 mph22.2 kmh 29.55 in1000.7 mb - 0.00 in0.0 mm 0.00 in0.0 mm
01:30 AM 38.9°F3.8°C 37.3°F2.9°C 94% 12.7 mph E20.4 kmh E 18.4 mph29.6 kmh 29.55 in1000.7 mb - 0.00 in0.0 mm 0.00 in0.0 mm
01:15 AM 39.0°F3.9°C 37.7°F3.2°C 95% 11.5 mph ESE18.5 kmh ESE 13.8 mph22.2 kmh 29.55 in1000.7 mb - 0.00 in0.0 mm 0.00 in0.0 mm
01:00 AM 38.9°F3.8°C 37.6°F3.1°C 95% 13.8 mph ESE22.2 kmh ESE 17.3 mph27.8 kmh 29.55 in1000.7 mb - 0.00 in0.0 mm 0.00 in0.0 mm
12:45 AM 38.8°F3.8°C 37.5°F3.1°C 95% 9.2 mph ESE14.8 kmh ESE 12.7 mph20.4 kmh 29.54 in1000.3 mb - 0.00 in0.0 mm 0.00 in0.0 mm
12:30 AM 38.7°F3.7°C 37.4°F3.0°C 95% 12.7 mph E20.4 kmh E 16.1 mph25.9 kmh 29.54 in1000.3 mb - 0.00 in0.0 mm 0.00 in0.0 mm
12:15 AM 38.7°F3.7°C 37.4°F3.0°C 95% 8.1 mph ESE13.0 kmh ESE 11.5 mph18.5 kmh 29.54 in1000.3 mb - 0.00 in0.0 mm 0.00 in0.0 mm
12:00 AM 38.7°F3.7°C 37.4°F3.0°C 95% 10.4 mph ESE16.7 kmh ESE 15.0 mph24.1 kmh 29.54 in1000.3 mb - 0.00 in0.0 mm 0.00 in0.0 mm